Time;durP1;ratioP1;P1;durP2;ratioP2;P2;SDS_P1;SDS_P2;PMS_P1;PMS_P2;Temp;Humidity;BMP_temperature;BMP_pressure;BME280_temperature;BME280_humidity;BME280_pressure;Samples;Min_cycle;Max_cycle;Signal;HPM_P1;HPM_P2
2021/08/18 00:02:10;;;;;;;9.40;8.50;;;15.70;99.90;;;;;;6310971;22;20449;-80
2021/08/18 00:04:37;;;;;;;11.63;8.33;;;15.60;99.90;;;;;;6310267;22;20753;-80
2021/08/18 00:07:04;;;;;;;8.73;7.47;;;15.60;99.90;;;;;;6311284;22;20522;-80
2021/08/18 00:09:32;;;;;;;10.83;7.97;;;15.60;99.90;;;;;;6311989;22;20408;-79
2021/08/18 00:12:00;;;;;;;11.10;10.00;;;15.60;99.90;;;;;;6311628;22;20471;-80
2021/08/18 00:14:27;;;;;;;10.57;8.50;;;15.70;99.90;;;;;;6311188;22;20892;-80
2021/08/18 00:16:54;;;;;;;10.70;8.63;;;15.70;99.90;;;;;;6312407;22;20423;-80
2021/08/18 00:19:20;;;;;;;13.77;8.07;;;15.70;99.90;;;;;;6312115;22;20404;-80
2021/08/18 00:21:47;;;;;;;11.00;8.50;;;15.60;99.90;;;;;;6310983;22;20442;-80
2021/08/18 00:24:14;;;;;;;9.90;8.90;;;15.70;99.90;;;;;;6311167;22;20407;-80
2021/08/18 00:26:41;;;;;;;10.87;8.73;;;15.70;99.90;;;;;;6310675;22;20440;-78
2021/08/18 00:29:09;;;;;;;10.33;9.33;;;15.80;99.90;;;;;;6309705;22;20427;-78
2021/08/18 00:31:36;;;;;;;11.73;9.00;;;15.60;99.90;;;;;;6309241;22;20412;-78
2021/08/18 00:34:03;;;;;;;9.13;8.23;;;15.70;99.90;;;;;;6309577;22;20396;-78
2021/08/18 00:36:30;;;;;;;8.53;7.70;;;15.60;99.90;;;;;;6309387;22;20447;-78
2021/08/18 00:38:57;;;;;;;11.13;8.70;;;15.50;99.90;;;;;;6309204;22;20487;-78
2021/08/18 00:41:24;;;;;;;11.10;9.83;;;15.50;99.90;;;;;;6308457;22;20487;-78
2021/08/18 00:43:52;;;;;;;10.77;9.67;;;15.50;99.90;;;;;;6308350;22;20512;-78
2021/08/18 00:46:20;;;;;;;9.63;8.60;;;15.40;99.90;;;;;;6309904;22;20443;-78
2021/08/18 00:48:47;;;;;;;11.40;9.97;;;15.40;99.90;;;;;;6320597;22;20393;-78
2021/08/18 00:51:15;;;;;;;10.20;9.10;;;15.50;99.90;;;;;;6331177;22;20372;-77
2021/08/18 00:53:42;;;;;;;11.07;9.97;;;15.50;99.90;;;;;;6317827;22;20459;-80
2021/08/18 00:56:10;;;;;;;12.67;10.30;;;15.50;99.90;;;;;;6314226;22;20952;-78
2021/08/18 00:58:36;;;;;;;9.73;8.83;;;15.40;99.90;;;;;;6314535;22;20411;-79
2021/08/18 01:01:03;;;;;;;10.57;9.47;;;15.40;99.90;;;;;;6312499;22;20404;-79
2021/08/18 01:03:33;;;;;;;10.33;9.27;;;15.50;99.90;;;;;;6314292;22;20456;-79
2021/08/18 01:06:00;;;;;;;11.70;10.20;;;15.50;99.90;;;;;;6311970;22;20470;-79
2021/08/18 01:08:27;;;;;;;10.83;9.83;;;15.50;99.90;;;;;;6311731;22;20456;-79
2021/08/18 01:10:57;;;;;;;13.27;10.17;;;15.40;99.90;;;;;;6316121;22;20408;-79
2021/08/18 01:13:24;;;;;;;11.77;10.67;;;15.40;99.90;;;;;;6311535;22;20455;-80
2021/08/18 01:15:51;;;;;;;14.33;9.80;;;15.30;99.90;;;;;;6315586;22;20437;-79
2021/08/18 01:18:18;;;;;;;11.10;10.10;;;15.30;99.90;;;;;;6315860;22;20428;-78
2021/08/18 01:20:46;;;;;;;12.57;10.27;;;15.30;99.90;;;;;;6315656;22;20475;-78
2021/08/18 01:23:15;;;;;;;11.33;10.13;;;15.30;99.90;;;;;;6317267;22;20431;-79
2021/08/18 01:25:44;;;;;;;11.40;10.20;;;15.40;99.90;;;;;;6317860;22;20428;-77
2021/08/18 01:28:12;;;;;;;14.53;9.90;;;15.30;99.90;;;;;;6314849;22;20419;-77
2021/08/18 01:30:41;;;;;;;11.00;9.83;;;15.30;99.90;;;;;;6314566;22;20436;-79
2021/08/18 01:33:09;;;;;;;9.97;8.97;;;15.30;99.90;;;;;;6309460;22;20462;-79
2021/08/18 01:35:39;;;;;;;9.70;8.70;;;15.30;99.90;;;;;;6317074;22;20416;-78
2021/08/18 01:38:07;;;;;;;10.13;9.10;;;15.30;99.90;;;;;;6330961;22;20400;-78
2021/08/18 01:40:35;;;;;;;12.40;11.10;;;15.60;99.90;;;;;;6326017;22;20443;-78
2021/08/18 01:43:02;;;;;;;11.10;10.00;;;15.30;99.90;;;;;;6315602;22;20428;-79
2021/08/18 01:45:32;;;;;;;10.57;9.47;;;15.30;99.90;;;;;;6310129;22;20411;-79
2021/08/18 01:48:06;;;;;;;12.63;9.70;;;15.30;99.90;;;;;;6309614;22;20538;-79
2021/08/18 01:50:33;;;;;;;14.97;9.20;;;15.30;99.90;;;;;;6309871;22;20438;-78
2021/08/18 01:53:00;;;;;;;11.03;9.67;;;15.30;99.90;;;;;;6309119;22;20498;-79
2021/08/18 01:55:28;;;;;;;10.90;8.50;;;15.30;99.90;;;;;;6310710;22;20439;-79
2021/08/18 01:57:57;;;;;;;10.57;9.57;;;15.30;99.90;;;;;;6314505;22;20773;-79
2021/08/18 02:00:25;;;;;;;10.03;9.00;;;15.30;99.90;;;;;;6309938;22;20427;-79
2021/08/18 02:02:52;;;;;;;11.57;9.60;;;15.30;99.90;;;;;;6309203;22;20503;-79
2021/08/18 02:05:22;;;;;;;10.57;9.03;;;15.30;99.90;;;;;;6309172;22;20900;-79
2021/08/18 02:07:49;;;;;;;11.67;9.50;;;15.30;99.90;;;;;;6308326;22;20527;-79
2021/08/18 02:10:17;;;;;;;10.80;9.73;;;15.20;99.90;;;;;;6314680;22;20471;-78
2021/08/18 02:12:45;;;;;;;10.30;9.20;;;15.20;99.90;;;;;;6318226;22;20432;-78
2021/08/18 02:15:15;;;;;;;10.47;9.37;;;15.20;99.90;;;;;;6320608;22;20413;-78
2021/08/18 02:17:42;;;;;;;11.30;9.80;;;15.40;99.90;;;;;;6312557;22;20756;-79
2021/08/18 02:20:13;;;;;;;10.00;9.07;;;15.10;99.90;;;;;;6309842;22;20415;-79
2021/08/18 02:22:42;;;;;;;11.57;10.17;;;15.20;99.90;;;;;;6309297;22;20485;-79
2021/08/18 02:25:10;;;;;;;10.93;9.10;;;15.10;99.90;;;;;;6308706;22;20458;-79
2021/08/18 02:27:37;;;;;;;10.00;9.00;;;15.00;99.90;;;;;;6309444;22;20436;-79
2021/08/18 02:30:05;;;;;;;9.10;8.17;;;15.00;99.90;;;;;;6317232;22;20487;-79
2021/08/18 02:32:32;;;;;;;12.30;9.27;;;15.10;99.90;;;;;;6319715;22;20455;-78
2021/08/18 02:34:59;;;;;;;9.47;8.57;;;15.10;99.90;;;;;;6320085;22;20382;-78
2021/08/18 02:37:26;;;;;;;10.20;9.20;;;15.10;99.90;;;;;;6319644;22;20766;-78
2021/08/18 02:39:54;;;;;;;12.40;8.60;;;15.10;99.90;;;;;;6320218;22;20424;-78
2021/08/18 02:42:21;;;;;;;10.20;8.87;;;14.80;99.90;;;;;;6319475;22;20431;-78
2021/08/18 02:44:48;;;;;;;10.23;8.93;;;15.00;99.90;;;;;;6319323;22;20419;-78
2021/08/18 02:47:15;;;;;;;9.73;8.73;;;15.10;99.90;;;;;;6318261;22;20887;-79
2021/08/18 02:49:43;;;;;;;9.13;8.10;;;15.00;99.90;;;;;;6318275;22;20447;-78
2021/08/18 02:52:10;;;;;;;10.70;9.20;;;15.00;99.90;;;;;;6311591;22;20456;-79
2021/08/18 02:54:37;;;;;;;14.60;9.17;;;15.00;99.90;;;;;;6309314;22;20512;-77
2021/08/18 02:57:06;;;;;;;9.33;8.40;;;15.00;99.90;;;;;;6308259;22;20400;-78
2021/08/18 02:59:32;;;;;;;11.30;8.87;;;14.90;99.90;;;;;;6311206;22;20436;-77
2021/08/18 03:02:00;;;;;;;10.67;8.73;;;15.00;99.90;;;;;;6311743;22;20462;-78
2021/08/18 03:04:26;;;;;;;9.67;8.17;;;14.90;99.90;;;;;;6307950;22;20432;-78
2021/08/18 03:06:54;;;;;;;14.47;8.47;;;14.90;99.90;;;;;;6308737;22;20519;-78
2021/08/18 03:09:22;;;;;;;9.03;8.13;;;15.00;99.90;;;;;;6319867;22;20421;-76
2021/08/18 03:11:49;;;;;;;9.00;7.97;;;15.10;99.90;;;;;;6319787;22;20405;-78
2021/08/18 03:14:17;;;;;;;8.73;7.87;;;15.00;99.90;;;;;;6311016;22;20486;-80
2021/08/18 03:16:44;;;;;;;9.87;8.97;;;14.90;99.90;;;;;;6315140;22;20396;-80
2021/08/18 03:19:11;;;;;;;10.30;9.00;;;14.90;99.90;;;;;;6315462;22;20423;-79
2021/08/18 03:21:38;;;;;;;9.60;8.63;;;14.90;99.90;;;;;;6315081;22;20463;-79
2021/08/18 03:24:05;;;;;;;12.80;8.70;;;14.80;99.90;;;;;;6315846;22;20452;-80
2021/08/18 03:26:32;;;;;;;9.33;8.33;;;14.80;99.90;;;;;;6314844;22;20472;-80
2021/08/18 03:28:59;;;;;;;10.10;8.50;;;14.90;99.90;;;;;;6314541;22;20442;-80
2021/08/18 03:31:28;;;;;;;9.23;8.33;;;14.90;99.90;;;;;;6315062;22;20697;-79
2021/08/18 03:33:55;;;;;;;9.17;8.20;;;14.90;99.90;;;;;;6314288;22;20428;-79
2021/08/18 03:36:22;;;;;;;13.50;8.50;;;14.90;99.90;;;;;;6314588;22;20469;-80
2021/08/18 03:38:49;;;;;;;9.37;8.40;;;14.90;99.90;;;;;;6315241;22;20405;-80
2021/08/18 03:41:16;;;;;;;11.67;9.50;;;14.90;99.90;;;;;;6318058;22;20467;-79
2021/08/18 03:43:43;;;;;;;12.27;8.53;;;14.90;99.90;;;;;;6315883;22;20978;-80
2021/08/18 03:46:10;;;;;;;12.53;8.60;;;14.90;99.90;;;;;;6316942;22;20442;-80
2021/08/18 03:48:38;;;;;;;9.47;7.93;;;14.80;99.90;;;;;;6316025;22;20447;-79
2021/08/18 03:51:05;;;;;;;10.10;7.90;;;14.90;99.90;;;;;;6316455;22;20411;-78
2021/08/18 03:53:32;;;;;;;11.47;9.27;;;14.80;99.90;;;;;;6315734;22;20963;-79
2021/08/18 03:55:59;;;;;;;11.53;9.27;;;14.80;99.90;;;;;;6316123;22;20404;-79
2021/08/18 03:58:26;;;;;;;9.87;8.00;;;14.90;99.90;;;;;;6317501;22;20396;-78
2021/08/18 04:00:53;;;;;;;10.90;8.50;;;14.90;99.90;;;;;;6318798;22;20491;-78
2021/08/18 04:03:20;;;;;;;13.73;9.63;;;14.80;99.90;;;;;;6318122;22;20462;-78
2021/08/18 04:05:48;;;;;;;9.63;8.47;;;14.80;99.90;;;;;;6319646;22;20439;-78
2021/08/18 04:08:15;;;;;;;11.90;8.83;;;14.80;99.90;;;;;;6319100;22;20432;-79
2021/08/18 04:10:41;;;;;;;10.27;9.20;;;14.90;99.90;;;;;;6319196;22;20689;-80
2021/08/18 04:13:09;;;;;;;10.87;9.37;;;14.70;99.90;;;;;;6319252;22;20427;-79
2021/08/18 04:15:37;;;;;;;10.20;7.93;;;14.80;99.90;;;;;;6317945;22;20400;-80
2021/08/18 04:18:05;;;;;;;11.33;9.20;;;14.90;99.90;;;;;;6318816;22;20480;-79
2021/08/18 04:20:32;;;;;;;11.97;9.40;;;14.80;99.90;;;;;;6317498;22;20440;-78
2021/08/18 04:23:00;;;;;;;9.90;8.53;;;14.80;99.90;;;;;;6320577;22;20459;-79
2021/08/18 04:25:27;;;;;;;11.17;8.47;;;14.80;99.90;;;;;;6322300;22;20408;-79
2021/08/18 04:27:55;;;;;;;11.13;8.17;;;14.90;99.90;;;;;;6319375;22;20463;-79
2021/08/18 04:30:23;;;;;;;10.23;8.63;;;14.80;99.90;;;;;;6320831;22;20404;-78
2021/08/18 04:32:50;;;;;;;10.13;8.33;;;14.90;99.90;;;;;;6318523;22;20458;-80
2021/08/18 04:35:17;;;;;;;10.27;9.17;;;15.00;99.90;;;;;;6319645;22;20436;-81
2021/08/18 04:37:45;;;;;;;12.33;10.23;;;14.90;99.90;;;;;;6318649;22;20400;-80
2021/08/18 04:40:15;;;;;;;9.87;8.10;;;15.00;99.90;;;;;;6317263;22;20461;-80
2021/08/18 04:42:43;;;;;;;9.83;8.60;;;14.90;99.90;;;;;;6317582;22;20421;-80
2021/08/18 04:45:12;;;;;;;11.83;8.23;;;14.90;99.90;;;;;;6319842;22;20727;-79
2021/08/18 04:47:40;;;;;;;14.43;10.00;;;14.90;99.90;;;;;;6317366;22;20763;-80
2021/08/18 04:50:09;;;;;;;9.80;7.90;;;14.80;99.90;;;;;;6318259;22;20803;-80
2021/08/18 04:52:35;;;;;;;11.17;8.20;;;14.90;99.90;;;;;;6318716;22;20799;-80
2021/08/18 04:55:02;;;;;;;15.23;9.70;;;14.80;99.90;;;;;;6320276;22;20460;-81
2021/08/18 04:57:30;;;;;;;18.37;13.93;;;14.80;99.90;;;;;;6320549;22;20405;-79
2021/08/18 04:59:57;;;;;;;11.33;9.67;;;14.80;99.90;;;;;;6319072;22;20962;-79
2021/08/18 05:02:23;;;;;;;10.80;7.93;;;15.30;99.90;;;;;;6318132;22;20907;-80
2021/08/18 05:04:50;;;;;;;21.40;14.97;;;;;;;;;;6317613;22;20430;-79
2021/08/18 05:07:17;;;;;;;36.67;23.17;;;15.10;99.90;;;;;;6319303;22;20820;-81
2021/08/18 05:09:43;;;;;;;30.17;20.53;;;15.10;99.90;;;;;;6320190;22;20461;-80
2021/08/18 05:12:10;;;;;;;23.57;16.33;;;15.10;99.90;;;;;;6319513;22;20842;-80
2021/08/18 05:14:38;;;;;;;27.60;19.60;;;15.10;99.90;;;;;;6318806;22;20418;-80
2021/08/18 05:17:05;;;;;;;21.00;16.13;;;15.00;99.90;;;;;;6317122;22;20436;-80
2021/08/18 05:19:32;;;;;;;13.60;11.70;;;14.90;99.90;;;;;;6316531;22;20923;-80
2021/08/18 05:21:58;;;;;;;10.07;8.57;;;14.90;99.90;;;;;;6318579;22;20404;-79
2021/08/18 05:24:25;;;;;;;11.53;7.77;;;14.90;99.90;;;;;;6316740;22;20429;-79
2021/08/18 05:26:51;;;;;;;10.17;9.17;;;14.90;99.90;;;;;;6316934;22;20392;-80
2021/08/18 05:29:18;;;;;;;20.27;13.27;;;14.90;99.90;;;;;;6318453;22;20447;-80
2021/08/18 05:31:46;;;;;;;20.70;15.03;;;15.00;99.90;;;;;;6317329;22;20404;-81
2021/08/18 05:34:13;;;;;;;16.83;13.20;;;15.00;99.90;;;;;;6317439;22;20420;-80
2021/08/18 05:36:39;;;;;;;12.90;11.30;;;15.10;99.90;;;;;;6317527;22;20431;-80
2021/08/18 05:39:06;;;;;;;15.90;11.30;;;15.30;99.90;;;;;;6319788;22;20400;-80
2021/08/18 05:41:33;;;;;;;14.27;10.20;;;15.20;99.90;;;;;;6320359;22;20411;-80
2021/08/18 05:44:00;;;;;;;12.03;8.50;;;15.30;99.90;;;;;;6318787;22;20431;-80
2021/08/18 05:46:27;;;;;;;8.60;7.67;;;15.30;99.90;;;;;;6317322;22;20419;-80
2021/08/18 05:48:54;;;;;;;13.30;7.60;;;15.40;99.90;;;;;;6317995;22;20435;-79
2021/08/18 05:51:21;;;;;;;6.80;6.20;;;15.50;99.90;;;;;;6318356;22;20741;-79
2021/08/18 05:53:50;;;;;;;10.73;7.83;;;15.50;99.90;;;;;;6318368;22;20432;-79
2021/08/18 05:56:17;;;;;;;24.13;15.40;;;15.50;99.90;;;;;;6316472;22;20908;-80
2021/08/18 05:58:43;;;;;;;50.23;35.33;;;15.50;99.90;;;;;;6317156;22;20400;-80
2021/08/18 06:01:10;;;;;;;31.93;22.90;;;15.60;99.90;;;;;;6318120;22;20400;-79
2021/08/18 06:03:37;;;;;;;28.70;20.93;;;15.60;99.90;;;;;;6316613;22;20428;-80
2021/08/18 06:06:05;;;;;;;15.40;13.13;;;15.50;99.90;;;;;;6314987;22;20404;-79
2021/08/18 06:08:32;;;;;;;12.30;9.30;;;15.50;99.90;;;;;;6315669;22;20582;-79
2021/08/18 06:10:58;;;;;;;8.20;7.40;;;15.40;99.90;;;;;;6317964;22;20404;-79
2021/08/18 06:13:25;;;;;;;9.63;7.10;;;15.50;99.90;;;;;;6316783;22;20451;-79
2021/08/18 06:15:52;;;;;;;8.27;7.47;;;15.50;99.90;;;;;;6315681;22;20836;-80
2021/08/18 06:18:18;;;;;;;8.13;6.97;;;15.50;99.90;;;;;;6313932;22;20400;-79
2021/08/18 06:20:45;;;;;;;9.43;5.80;;;15.50;99.90;;;;;;6314382;22;20433;-79
2021/08/18 06:23:16;;;;;;;7.40;6.60;;;15.50;99.90;;;;;;6314674;22;20431;-78
2021/08/18 06:25:43;;;;;;;8.93;6.77;;;15.50;99.90;;;;;;6318623;22;20412;-79
2021/08/18 06:28:10;;;;;;;7.40;6.70;;;15.50;99.90;;;;;;6318865;22;20470;-79
2021/08/18 06:30:36;;;;;;;7.93;6.23;;;15.50;99.90;;;;;;6317078;22;20404;-80
2021/08/18 06:33:03;;;;;;;7.53;6.47;;;15.50;99.90;;;;;;6316431;22;20424;-81
2021/08/18 06:35:29;;;;;;;6.93;6.30;;;15.60;99.90;;;;;;6317971;22;20404;-79
2021/08/18 06:37:56;;;;;;;9.20;7.73;;;15.70;99.90;;;;;;6323852;22;20401;-79
2021/08/18 06:40:24;;;;;;;6.73;5.70;;;15.80;99.90;;;;;;6321376;22;20411;-79
2021/08/18 06:42:50;;;;;;;6.40;5.80;;;15.80;99.90;;;;;;6318420;22;20424;-78
2021/08/18 06:45:17;;;;;;;6.67;5.13;;;15.70;99.90;;;;;;6316102;22;20407;-78
2021/08/18 06:47:44;;;;;;;16.60;6.00;;;15.70;99.90;;;;;;6315958;22;20435;-78
2021/08/18 06:50:11;;;;;;;6.13;5.53;;;15.80;99.90;;;;;;6316831;22;20409;-80
2021/08/18 06:52:38;;;;;;;8.10;6.30;;;15.80;99.90;;;;;;6316753;22;20940;-79
2021/08/18 06:55:06;;;;;;;7.30;5.00;;;15.90;99.90;;;;;;6316373;22;20403;-80
2021/08/18 06:57:34;;;;;;;6.97;5.40;;;15.90;99.90;;;;;;6317513;22;20400;-79
2021/08/18 07:00:00;;;;;;;6.33;5.47;;;15.90;99.90;;;;;;6317060;22;20407;-79
2021/08/18 07:02:27;;;;;;;13.90;5.03;;;16.00;99.90;;;;;;6319263;22;20427;-79
2021/08/18 07:04:53;;;;;;;9.83;6.60;;;16.10;99.90;;;;;;6320029;22;20726;-80
2021/08/18 07:07:20;;;;;;;7.37;5.43;;;16.10;99.90;;;;;;6318750;22;20415;-80
2021/08/18 07:09:47;;;;;;;10.70;5.90;;;16.10;99.90;;;;;;6317700;22;20440;-78
2021/08/18 07:12:13;;;;;;;8.70;5.47;;;16.20;99.90;;;;;;6319855;22;20430;-78
2021/08/18 07:14:41;;;;;;;9.17;7.43;;;16.20;99.90;;;;;;6321944;22;20418;-79
2021/08/18 07:17:07;;;;;;;8.20;4.77;;;16.40;99.90;;;;;;6322339;22;20400;-79
2021/08/18 07:19:34;;;;;;;4.87;4.47;;;16.40;99.90;;;;;;6325213;22;20400;-80
2021/08/18 07:22:01;;;;;;;6.10;4.90;;;16.50;99.90;;;;;;6329414;22;20797;-79
2021/08/18 07:24:27;;;;;;;5.97;4.90;;;16.50;99.90;;;;;;6327665;22;20468;-79
2021/08/18 07:26:54;;;;;;;5.03;4.00;;;16.60;99.90;;;;;;6326817;22;20404;-80
2021/08/18 07:29:21;;;;;;;4.80;4.27;;;16.70;99.90;;;;;;6327694;22;20428;-79
2021/08/18 07:31:49;;;;;;;5.93;5.07;;;16.80;99.90;;;;;;6328139;22;20479;-80
2021/08/18 07:34:18;;;;;;;5.70;3.80;;;16.90;99.90;;;;;;6326758;22;20424;-80
2021/08/18 07:36:44;;;;;;;4.87;4.20;;;17.10;99.90;;;;;;6328251;22;20400;-79
2021/08/18 07:39:11;;;;;;;5.63;3.30;;;17.20;99.90;;;;;;6325971;22;20396;-80
2021/08/18 07:41:38;;;;;;;4.70;3.07;;;17.20;99.90;;;;;;6327608;22;20490;-79
2021/08/18 07:44:04;;;;;;;4.00;3.10;;;17.30;99.90;;;;;;6330164;22;20424;-79
2021/08/18 07:46:31;;;;;;;6.70;3.20;;;17.20;99.90;;;;;;6326544;22;20430;-79
2021/08/18 07:48:59;;;;;;;5.80;3.67;;;17.20;99.90;;;;;;6330057;22;20443;-80
2021/08/18 07:51:26;;;;;;;5.00;3.43;;;17.20;99.90;;;;;;6327593;22;20404;-79
2021/08/18 07:53:52;;;;;;;3.63;3.33;;;17.20;99.90;;;;;;6329285;22;20427;-79
2021/08/18 07:56:19;;;;;;;6.43;3.77;;;17.10;99.90;;;;;;6328068;22;20404;-79
2021/08/18 07:58:45;;;;;;;6.07;4.13;;;17.10;99.90;;;;;;6328576;22;20396;-80
2021/08/18 08:01:12;;;;;;;3.13;2.90;;;17.00;99.90;;;;;;6326372;22;20406;-79
2021/08/18 08:03:38;;;;;;;5.00;3.77;;;16.90;99.90;;;;;;6325521;22;20428;-79
2021/08/18 08:06:06;;;;;;;3.77;3.23;;;17.00;99.90;;;;;;6326261;22;20430;-79
2021/08/18 08:08:33;;;;;;;3.33;3.03;;;17.10;99.90;;;;;;6322741;22;20450;-79
2021/08/18 08:10:59;;;;;;;4.57;3.50;;;17.10;99.90;;;;;;6323984;22;20404;-79
2021/08/18 08:13:26;;;;;;;4.33;3.33;;;17.20;99.90;;;;;;6323039;22;20443;-80
2021/08/18 08:15:54;;;;;;;4.40;3.37;;;17.30;99.90;;;;;;6321085;22;20474;-79
2021/08/18 08:18:21;;;;;;;3.57;3.10;;;17.30;99.90;;;;;;6320835;22;20400;-79
2021/08/18 08:20:47;;;;;;;4.90;4.40;;;17.50;99.90;;;;;;6322125;22;20419;-79
2021/08/18 08:23:15;;;;;;;5.17;2.60;;;17.60;99.90;;;;;;6322958;22;20424;-79
2021/08/18 08:25:42;;;;;;;3.50;3.20;;;17.70;99.90;;;;;;6322303;22;20401;-79
2021/08/18 08:28:09;;;;;;;2.60;2.40;;;17.90;99.90;;;;;;6325500;22;20404;-79
2021/08/18 08:30:35;;;;;;;3.20;3.00;;;17.90;99.90;;;;;;6327047;22;20408;-79
2021/08/18 08:33:02;;;;;;;4.20;3.20;;;17.80;99.90;;;;;;6324363;22;20974;-80
2021/08/18 08:35:29;;;;;;;4.70;2.47;;;17.80;99.90;;;;;;6323141;22;20912;-78
2021/08/18 08:37:55;;;;;;;3.47;3.17;;;18.00;99.90;;;;;;6323880;22;20404;-80
2021/08/18 08:40:23;;;;;;;3.33;3.03;;;17.90;99.90;;;;;;6325268;22;20396;-80
2021/08/18 08:42:52;;;;;;;3.60;3.00;;;17.90;99.90;;;;;;6327247;22;20977;-79
2021/08/18 08:45:18;;;;;;;3.30;3.00;;;17.90;99.90;;;;;;6328011;22;20783;-79
2021/08/18 08:47:45;;;;;;;4.60;2.87;;;17.80;99.90;;;;;;6327721;22;20396;-79
2021/08/18 08:50:14;;;;;;;3.27;2.97;;;17.80;99.90;;;;;;6327411;22;20440;-79
2021/08/18 08:52:41;;;;;;;2.80;2.53;;;17.90;99.90;;;;;;6327268;22;20638;-79
2021/08/18 08:55:08;;;;;;;3.13;2.83;;;18.10;99.90;;;;;;6330704;22;20404;-79
2021/08/18 08:57:47;;;;;;;3.20;2.90;;;18.10;99.90;;;;;;6330410;22;20396;-79
2021/08/18 09:00:14;;;;;;;3.27;3.03;;;18.10;99.90;;;;;;6331894;22;20439;-79
2021/08/18 09:02:41;;;;;;;3.50;3.23;;;18.10;99.90;;;;;;6329822;22;20917;-79
2021/08/18 09:05:08;;;;;;;5.43;3.20;;;18.00;99.90;;;;;;6330732;22;20412;-79
2021/08/18 09:07:35;;;;;;;3.30;3.00;;;18.00;99.90;;;;;;6329660;22;20400;-79
2021/08/18 09:10:03;;;;;;;4.60;4.20;;;18.00;99.90;;;;;;6327857;22;20923;-79
2021/08/18 09:12:32;;;;;;;3.20;2.80;;;17.90;99.90;;;;;;6327693;22;20428;-79
2021/08/18 09:15:14;;;;;;;6.27;3.27;;;18.00;99.90;;;;;;6317804;22;20452;-84
2021/08/18 09:17:45;;;;;;;3.50;2.80;;;18.00;99.90;;;;;;6333455;22;20392;-83
2021/08/18 09:20:56;;;;;;;3.23;2.93;;;18.10;99.90;;;;;;6330611;22;20381;-84
2021/08/18 09:23:23;;;;;;;2.73;2.40;;;;;;;;;;6329873;22;20454;-84
2021/08/18 09:25:58;;;;;;;4.20;2.73;;;18.10;99.90;;;;;;6329485;22;20408;-84
2021/08/18 09:28:25;;;;;;;3.20;2.47;;;;;;;;;;6328611;22;20468;-84
2021/08/18 09:30:58;;;;;;;4.13;3.80;;;17.80;99.90;;;;;;6322217;22;20412;-84
2021/08/18 09:33:39;;;;;;;3.90;2.97;;;17.70;99.90;;;;;;6323723;22;20444;-84
2021/08/18 09:36:23;;;;;;;3.43;2.80;;;17.70;99.90;;;;;;6320238;22;20400;-83
2021/08/18 09:38:50;;;;;;;2.83;2.63;;;;;;;;;;6318601;22;20388;-84
2021/08/18 09:41:18;;;;;;;3.07;2.80;;;17.60;99.90;;;;;;6320810;22;20430;-84
2021/08/18 09:43:45;;;;;;;5.70;2.70;;;17.60;99.90;;;;;;6315345;22;20503;-84
2021/08/18 09:46:12;;;;;;;4.20;2.87;;;17.60;99.90;;;;;;6314629;22;20404;-83
2021/08/18 09:48:39;;;;;;;5.97;3.70;;;17.50;99.90;;;;;;6315321;22;20436;-84
2021/08/18 09:51:09;;;;;;;3.30;3.10;;;17.60;99.90;;;;;;6315987;22;20745;-83
2021/08/18 09:53:39;;;;;;;3.63;2.80;;;17.50;99.90;;;;;;6316286;22;20434;-83
2021/08/18 09:56:07;;;;;;;3.10;2.90;;;17.60;99.90;;;;;;6318592;22;20447;-83
2021/08/18 09:58:36;;;;;;;6.63;5.33;;;17.60;99.90;;;;;;6315954;22;20404;-83
2021/08/18 10:01:08;;;;;;;3.47;3.20;;;17.70;99.90;;;;;;6316639;22;20404;-83
2021/08/18 10:03:39;;;;;;;5.70;2.90;;;17.80;99.90;;;;;;6316726;22;20787;-82
2021/08/18 10:06:07;;;;;;;3.10;2.80;;;17.90;99.90;;;;;;6317155;22;20388;-83
2021/08/18 10:08:35;;;;;;;3.37;3.03;;;17.90;99.90;;;;;;6317345;22;20500;-83
2021/08/18 10:11:02;;;;;;;3.30;3.00;;;18.20;99.90;;;;;;6319108;22;20404;-85
2021/08/18 10:13:32;;;;;;;4.30;3.87;;;18.40;99.90;;;;;;6318953;22;20963;-83
2021/08/18 10:16:00;;;;;;;2.70;2.50;;;18.60;99.90;;;;;;6316493;22;20381;-84
2021/08/18 10:18:30;;;;;;;4.40;2.60;;;18.90;99.90;;;;;;6316882;22;20446;-83
2021/08/18 10:21:00;;;;;;;4.43;3.17;;;19.00;99.90;;;;;;6318881;22;20419;-84
2021/08/18 10:23:47;;;;;;;3.50;3.20;;;19.10;99.90;;;;;;6318239;22;20455;-82
2021/08/18 10:26:48;;;;;;;3.77;3.00;;;19.30;99.90;;;;;;6322608;22;20387;-82
2021/08/18 10:29:19;;;;;;;3.00;2.70;;;19.40;99.90;;;;;;6320956;22;20811;-82
2021/08/18 10:31:59;;;;;;;4.40;2.83;;;19.40;99.90;;;;;;6320713;22;20392;-83
2021/08/18 10:34:45;;;;;;;3.30;2.60;;;20.10;99.90;;;;;;6319823;22;20423;-83
2021/08/18 10:37:33;;;;;;;4.00;3.27;;;19.40;99.90;;;;;;6320898;22;20384;-83
2021/08/18 10:40:14;;;;;;;2.93;2.60;;;19.40;99.90;;;;;;6317344;22;20410;-84
2021/08/18 10:42:43;;;;;;;4.03;2.30;;;19.40;99.90;;;;;;6326295;22;20372;-84
2021/08/18 10:45:37;;;;;;;2.70;2.37;;;19.40;99.90;;;;;;6332232;22;20802;-83
2021/08/18 10:48:04;;;;;;;2.63;2.43;;;19.40;99.90;;;;;;6317121;22;20880;-81
2021/08/18 10:50:45;;;;;;;3.67;2.57;;;19.50;99.90;;;;;;6315218;22;20462;-81
2021/08/18 10:53:30;;;;;;;5.73;3.80;;;19.60;99.90;;;;;;6315214;22;20462;-84
2021/08/18 10:55:57;;;;;;;4.17;2.37;;;19.60;99.90;;;;;;6315207;22;20391;-83
2021/08/18 10:58:31;;;;;;;4.80;1.97;;;19.70;99.90;;;;;;6315857;22;20404;-83
2021/08/18 11:00:58;;;;;;;3.43;2.03;;;19.70;99.90;;;;;;6316452;22;20399;-83
2021/08/18 11:03:30;;;;;;;3.20;2.10;;;19.80;99.90;;;;;;6318251;22;20752;-83
2021/08/18 11:05:58;;;;;;;4.50;2.30;;;20.00;99.90;;;;;;6319103;22;20496;-83
2021/08/18 11:08:26;;;;;;;4.47;2.87;;;20.10;99.90;;;;;;6320144;22;20605;-82
2021/08/18 11:11:15;;;;;;;2.60;2.40;;;20.10;99.90;;;;;;6319870;22;20505;-82
2021/08/18 11:13:44;;;;;;;2.40;2.10;;;20.20;99.90;;;;;;6316656;22;20916;-83
2021/08/18 11:16:12;;;;;;;3.77;2.33;;;20.10;99.90;;;;;;6315132;22;20430;-83
2021/08/18 11:18:46;;;;;;;2.83;2.10;;;20.10;99.90;;;;;;6316843;22;20408;-83
2021/08/18 11:21:18;;;;;;;3.07;2.53;;;20.00;99.90;;;;;;6315338;22;20558;-82
2021/08/18 11:23:49;;;;;;;1.90;1.80;;;19.90;99.90;;;;;;6313926;22;20428;-82
2021/08/18 11:26:20;;;;;;;3.90;2.23;;;19.90;99.90;;;;;;6317445;22;20403;-84
2021/08/18 11:28:57;;;;;;;2.70;2.50;;;19.80;99.90;;;;;;6318006;22;20389;-84
2021/08/18 11:31:39;;;;;;;2.70;2.50;;;19.80;99.90;;;;;;6323021;22;20442;-82
2021/08/18 11:34:17;;;;;;;2.43;2.20;;;19.80;99.90;;;;;;6314431;22;20424;-83
2021/08/18 11:36:44;;;;;;;2.37;2.17;;;19.70;99.90;;;;;;6313656;22;20446;-82
2021/08/18 11:39:12;;;;;;;2.37;2.17;;;19.70;99.90;;;;;;6314217;22;20404;-84
2021/08/18 11:41:42;;;;;;;3.03;2.60;;;19.70;99.90;;;;;;6315187;22;20403;-84
2021/08/18 11:44:18;;;;;;;4.20;2.90;;;19.80;99.90;;;;;;6319522;22;20496;-83
2021/08/18 11:46:45;;;;;;;2.80;2.60;;;19.80;99.90;;;;;;6325654;22;20384;-84
2021/08/18 11:49:12;;;;;;;3.40;2.50;;;19.90;99.90;;;;;;6323986;22;20805;-84
2021/08/18 11:51:39;;;;;;;4.27;2.53;;;19.90;99.90;;;;;;6314108;22;20411;-84
2021/08/18 11:54:08;;;;;;;2.93;2.73;;;19.90;99.90;;;;;;6315075;22;20432;-84
2021/08/18 11:56:35;;;;;;;1.97;1.83;;;19.80;99.90;;;;;;6313623;22;20412;-84
2021/08/18 11:59:06;;;;;;;2.57;2.37;;;19.60;99.90;;;;;;6314256;22;20469;-84
2021/08/18 12:01:34;;;;;;;3.80;2.30;;;19.40;99.90;;;;;;6315653;22;20404;-84
2021/08/18 12:04:03;;;;;;;2.80;2.60;;;19.60;99.90;;;;;;6315426;22;20412;-85
2021/08/18 12:06:34;;;;;;;3.17;2.87;;;19.60;99.90;;;;;;6315934;22;20396;-84
2021/08/18 12:09:05;;;;;;;4.30;2.97;;;19.60;99.90;;;;;;6317325;22;20453;-84
2021/08/18 12:11:37;;;;;;;6.40;3.07;;;19.60;99.90;;;;;;6319085;22;20411;-84
2021/08/18 12:14:22;;;;;;;2.60;2.17;;;19.90;99.90;;;;;;6318324;22;20450;-84
2021/08/18 12:17:01;;;;;;;2.93;2.67;;;19.60;99.90;;;;;;6317581;22;20466;-84
2021/08/18 12:19:30;;;;;;;2.40;2.17;;;19.60;99.90;;;;;;6319562;22;20399;-84
2021/08/18 12:22:37;;;;;;;2.47;2.27;;;19.50;99.90;;;;;;6330901;22;20415;-85
2021/08/18 12:25:10;;;;;;;4.23;2.53;;;20.10;99.90;;;;;;6330725;22;20409;-84
2021/08/18 12:27:37;;;;;;;2.80;2.50;;;;;;;;;;6320397;22;20434;-84
2021/08/18 12:30:10;;;;;;;4.07;2.43;;;19.30;99.90;;;;;;6321048;22;20494;-84
2021/08/18 12:32:38;;;;;;;3.97;2.53;;;19.30;99.90;;;;;;6323652;22;20392;-84
2021/08/18 12:35:06;;;;;;;6.33;2.33;;;19.50;99.90;;;;;;6328300;22;20424;-84
2021/08/18 12:37:35;;;;;;;2.93;2.10;;;19.50;99.90;;;;;;6325730;22;20484;-84
2021/08/18 12:40:04;;;;;;;2.70;2.47;;;19.60;99.90;;;;;;6319952;22;20411;-83
2021/08/18 12:42:34;;;;;;;3.60;2.57;;;19.60;99.90;;;;;;6323971;22;20420;-84
2021/08/18 12:45:07;;;;;;;3.47;2.90;;;19.60;99.90;;;;;;6317356;22;20759;-84
2021/08/18 12:47:36;;;;;;;2.73;2.53;;;19.60;99.90;;;;;;6315368;22;20415;-84
2021/08/18 12:50:05;;;;;;;3.67;2.97;;;19.70;99.90;;;;;;6314755;22;20440;-84
2021/08/18 12:52:31;;;;;;;2.37;2.17;;;19.50;99.90;;;;;;6314577;22;20434;-84